createdAt,value
2023-04-22T00:02:32.825Z,12.86
2023-04-22T00:05:12.002Z,12.84
2023-04-22T00:07:49.246Z,12.71
2023-04-22T00:10:33.085Z,12.66
2023-04-22T00:13:14.342Z,12.76
2023-04-22T00:16:03.565Z,12.61
2023-04-22T00:18:40.421Z,12.73
2023-04-22T00:21:17.307Z,12.77
2023-04-22T00:23:54.179Z,12.76
2023-04-22T00:26:26.695Z,12.64
2023-04-22T00:29:09.272Z,12.70
2023-04-22T00:31:50.942Z,12.58
2023-04-22T00:34:24.993Z,12.67
2023-04-22T00:36:59.188Z,12.71
2023-04-22T00:39:35.500Z,12.71
2023-04-22T00:42:09.909Z,12.59
2023-04-22T00:44:46.329Z,12.67
2023-04-22T00:47:22.389Z,12.61
2023-04-22T00:50:00.320Z,12.75
2023-04-22T00:52:39.053Z,12.75
2023-04-22T00:55:20.721Z,12.75
2023-04-22T00:57:58.000Z,12.63
2023-04-22T01:00:40.410Z,12.76
2023-04-22T01:03:18.277Z,12.79
2023-04-22T01:05:55.376Z,12.77
2023-04-22T01:08:36.069Z,12.83
2023-04-22T01:11:20.458Z,12.84
2023-04-22T01:13:57.777Z,12.84
2023-04-22T01:16:30.863Z,12.85
2023-04-22T01:19:19.253Z,12.87
2023-04-22T01:21:58.238Z,12.82
2023-04-22T01:24:41.013Z,12.89
2023-04-22T01:27:15.834Z,12.89
2023-04-22T01:30:01.893Z,12.90
2023-04-22T01:32:44.309Z,12.93
2023-04-22T01:35:20.925Z,12.93
2023-04-22T01:37:58.233Z,12.94
2023-04-22T01:40:36.929Z,12.94
2023-04-22T01:43:11.928Z,12.96
2023-04-22T01:45:48.826Z,12.99
2023-04-22T01:48:32.883Z,12.96
2023-04-22T01:51:08.592Z,12.95
2023-04-22T01:53:42.168Z,12.96
2023-04-22T01:56:22.031Z,12.85
2023-04-22T01:59:05.705Z,12.75
2023-04-22T02:01:42.227Z,12.83
2023-04-22T02:04:23.065Z,12.84
2023-04-22T02:07:09.145Z,12.90
2023-04-22T02:09:55.700Z,12.91
2023-04-22T02:12:36.010Z,12.91
2023-04-22T02:15:14.823Z,12.93
2023-04-22T02:17:53.354Z,12.96
2023-04-22T02:20:31.559Z,12.96
2023-04-22T02:23:07.140Z,12.98
2023-04-22T02:25:39.400Z,12.97
2023-04-22T02:28:21.710Z,12.92
2023-04-22T02:30:58.442Z,12.89
2023-04-22T02:33:37.527Z,12.90
2023-04-22T02:36:17.789Z,12.88
2023-04-22T02:38:51.233Z,12.86
2023-04-22T02:41:29.610Z,12.85
2023-04-22T02:44:14.558Z,12.84
2023-04-22T02:46:55.812Z,12.82
2023-04-22T02:49:31.668Z,12.77
2023-04-22T02:52:09.827Z,12.75
2023-04-22T02:54:49.189Z,12.67
2023-04-22T02:57:25.610Z,12.70
2023-04-22T03:00:03.704Z,12.63
2023-04-22T03:02:39.795Z,12.68
2023-04-22T03:05:24.788Z,12.68
2023-04-22T03:07:55.151Z,12.57
2023-04-22T03:10:31.108Z,12.50
2023-04-22T03:13:07.211Z,12.63
2023-04-22T03:15:50.488Z,12.57
2023-04-22T03:18:31.350Z,12.53
2023-04-22T03:21:25.521Z,12.51
2023-04-22T03:24:05.056Z,12.48
2023-04-22T03:26:59.610Z,12.44
2023-04-22T03:29:40.625Z,12.38
2023-04-22T03:32:17.799Z,12.37
2023-04-22T03:34:53.464Z,12.34
2023-04-22T03:37:26.415Z,12.29
2023-04-22T03:40:02.245Z,12.24
2023-04-22T03:42:36.658Z,12.21
2023-04-22T03:45:12.233Z,12.21
2023-04-22T03:47:56.565Z,12.20
2023-04-22T03:50:36.737Z,12.04
2023-04-22T03:53:11.691Z,12.01
2023-04-22T03:55:51.737Z,12.10
2023-04-22T03:58:33.605Z,12.10
2023-04-22T04:01:21.432Z,12.06
2023-04-22T04:04:04.706Z,12.02
2023-04-22T04:07:08.780Z,11.99
2023-04-22T04:09:42.328Z,11.97
2023-04-22T04:12:29.734Z,11.97
2023-04-22T04:15:04.222Z,11.92
2023-04-22T04:17:39.692Z,11.96
2023-04-22T04:20:22.419Z,11.94
2023-04-22T04:23:04.038Z,11.76
2023-04-22T04:25:45.078Z,11.89
2023-04-22T04:28:19.813Z,11.90
2023-04-22T04:30:56.089Z,11.90
2023-04-22T04:33:32.166Z,11.91
2023-04-22T04:36:12.969Z,11.89
2023-04-22T04:38:57.166Z,11.77
2023-04-22T04:41:44.874Z,11.96
2023-04-22T04:44:24.912Z,11.94
2023-04-22T04:47:05.897Z,12.02
2023-04-22T04:49:41.862Z,12.05
2023-04-22T04:52:20.471Z,12.07
2023-04-22T04:54:53.826Z,12.08
2023-04-22T04:57:36.585Z,12.10
2023-04-22T05:00:15.615Z,12.13
2023-04-22T05:02:54.665Z,12.17
2023-04-22T05:05:32.159Z,12.18
2023-04-22T05:08:07.102Z,12.21
2023-04-22T05:10:52.535Z,12.21
2023-04-22T05:13:36.458Z,12.16
2023-04-22T05:16:12.786Z,12.17
2023-04-22T05:18:47.277Z,12.18
2023-04-22T05:21:37.123Z,12.19
2023-04-22T05:24:18.052Z,12.23
2023-04-22T05:26:55.450Z,12.15
2023-04-22T05:29:39.699Z,12.30
2023-04-22T05:32:16.442Z,12.33
2023-04-22T05:35:00.676Z,12.32
2023-04-22T05:37:39.359Z,12.35
2023-04-22T05:40:23.569Z,12.39
2023-04-22T05:43:11.491Z,12.44
2023-04-22T05:45:53.717Z,12.50
2023-04-22T05:48:43.360Z,12.59
2023-04-22T05:51:33.116Z,12.68
2023-04-22T05:54:09.418Z,12.82
2023-04-22T05:56:49.919Z,12.72
2023-04-22T05:59:33.836Z,13.01
2023-04-22T06:02:13.447Z,13.07
2023-04-22T06:04:48.268Z,13.15
2023-04-22T06:07:22.152Z,13.23
2023-04-22T06:12:55.246Z,13.35
2023-04-22T06:15:37.148Z,13.35
2023-04-22T06:18:15.366Z,13.49
2023-04-22T06:20:55.555Z,13.68
2023-04-22T06:23:31.617Z,13.75
2023-04-22T06:26:15.747Z,13.86
2023-04-22T06:28:55.587Z,13.96
2023-04-22T06:31:31.066Z,14.04
2023-04-22T06:34:16.200Z,14.15
2023-04-22T06:36:59.295Z,14.14
2023-04-22T06:39:34.282Z,14.24
2023-04-22T06:42:15.820Z,14.37
2023-04-22T06:45:17.831Z,14.55
2023-04-22T06:48:08.387Z,14.67
2023-04-22T06:51:04.920Z,14.85
2023-04-22T06:53:35.690Z,14.89
2023-04-22T06:56:10.224Z,15.05
2023-04-22T06:58:44.590Z,15.07
2023-04-22T07:01:27.881Z,15.14
2023-04-22T07:04:01.817Z,15.18
2023-04-22T07:06:39.292Z,15.27
2023-04-22T07:09:16.922Z,15.41
2023-04-22T07:11:55.883Z,15.49
2023-04-22T07:14:38.041Z,15.60
2023-04-22T07:17:14.808Z,15.58
2023-04-22T07:19:51.193Z,15.73
2023-04-22T07:22:34.415Z,15.79
2023-04-22T07:25:13.053Z,15.85
2023-04-22T07:27:48.030Z,16.05
2023-04-22T07:30:27.562Z,16.18
2023-04-22T07:33:03.107Z,16.19
2023-04-22T07:35:40.435Z,16.22
2023-04-22T07:38:42.058Z,16.28
2023-04-22T07:41:17.298Z,16.18
2023-04-22T07:43:58.393Z,16.43
2023-04-22T07:46:39.551Z,16.42
2023-04-22T07:49:14.472Z,16.42
2023-04-22T07:51:57.885Z,16.66
2023-04-22T07:54:37.345Z,16.70
2023-04-22T07:57:12.161Z,16.80
2023-04-22T07:59:48.708Z,16.93
2023-04-22T08:02:25.438Z,16.89
2023-04-22T08:05:08.980Z,16.98
2023-04-22T08:07:42.137Z,17.09
2023-04-22T08:10:16.381Z,17.17
2023-04-22T08:12:50.218Z,17.22
2023-04-22T08:15:23.647Z,17.37
2023-04-22T08:17:57.725Z,17.53
2023-04-22T08:20:36.691Z,17.48
2023-04-22T08:23:11.466Z,17.59
2023-04-22T08:25:59.656Z,17.69
2023-04-22T08:28:32.592Z,17.78
2023-04-22T08:31:10.746Z,17.83
2023-04-22T08:33:51.386Z,17.98
2023-04-22T08:36:33.477Z,17.98
2023-04-22T08:39:11.698Z,18.13
2023-04-22T08:41:48.996Z,18.19
2023-04-22T08:44:25.438Z,18.26
2023-04-22T08:47:03.156Z,18.33
2023-04-22T08:49:49.973Z,18.48
2023-04-22T08:52:31.751Z,18.53
2023-04-22T08:55:07.715Z,18.42
2023-04-22T08:57:43.107Z,18.70
2023-04-22T09:00:20.295Z,18.89
2023-04-22T09:02:58.845Z,18.94
2023-04-22T09:05:38.519Z,18.92
2023-04-22T09:08:14.439Z,19.01
2023-04-22T09:10:57.666Z,19.02
2023-04-22T09:13:29.431Z,19.19
2023-04-22T09:16:03.761Z,19.15
2023-04-22T09:18:52.146Z,19.37
2023-04-22T09:21:31.261Z,19.48
2023-04-22T09:24:05.022Z,19.40
2023-04-22T09:26:44.711Z,19.56
2023-04-22T09:29:21.844Z,19.59
2023-04-22T09:31:55.268Z,19.59
2023-04-22T09:34:34.624Z,19.67
2023-04-22T09:37:14.014Z,19.77
2023-04-22T09:39:54.408Z,19.78
2023-04-22T09:42:36.330Z,19.91
2023-04-22T09:45:10.047Z,20.06
2023-04-22T09:47:43.152Z,20.17
2023-04-22T09:50:19.716Z,20.30
2023-04-22T09:53:04.936Z,20.35
2023-04-22T09:55:42.122Z,20.35
2023-04-22T09:58:24.059Z,20.48
2023-04-22T10:01:05.926Z,20.64
2023-04-22T10:03:42.118Z,20.59
2023-04-22T10:06:15.650Z,20.66
2023-04-22T10:08:48.930Z,20.74
2023-04-22T10:11:26.847Z,20.73
2023-04-22T10:14:04.175Z,20.82
2023-04-22T10:16:40.794Z,20.80
2023-04-22T10:19:24.099Z,20.70
2023-04-22T10:22:19.865Z,20.63
2023-04-22T10:25:17.899Z,20.83
2023-04-22T10:28:15.126Z,20.90
2023-04-22T10:30:49.107Z,21.08
2023-04-22T10:33:44.146Z,21.07
2023-04-22T10:36:27.536Z,21.19
2023-04-22T10:39:22.547Z,21.37
2023-04-22T10:42:08.709Z,21.40
2023-04-22T10:45:06.697Z,21.50
2023-04-22T10:47:43.262Z,21.69
2023-04-22T10:50:22.671Z,21.83
2023-04-22T10:53:00.010Z,21.86
2023-04-22T10:55:57.069Z,22.08
2023-04-22T10:58:40.002Z,22.13
2023-04-22T11:01:34.395Z,22.20
2023-04-22T11:04:26.600Z,22.36
2023-04-22T11:07:36.995Z,22.60
2023-04-22T11:10:18.858Z,22.54
2023-04-22T11:12:53.983Z,22.60
2023-04-22T11:15:36.870Z,22.55
2023-04-22T11:18:30.035Z,22.32
2023-04-22T11:21:11.969Z,22.39
2023-04-22T11:23:59.779Z,22.50
2023-04-22T11:26:42.025Z,22.60
2023-04-22T11:29:19.506Z,22.68
2023-04-22T11:31:55.654Z,22.63
2023-04-22T11:34:36.680Z,22.44
2023-04-22T11:37:28.941Z,22.31
2023-04-22T11:40:21.696Z,22.46
2023-04-22T11:43:11.173Z,22.45
2023-04-22T11:45:46.541Z,22.57
2023-04-22T11:48:20.700Z,22.38
2023-04-22T11:51:14.325Z,22.16
2023-04-22T11:54:03.266Z,21.96
2023-04-22T11:56:42.875Z,22.15
2023-04-22T11:59:21.100Z,22.39
2023-04-22T12:01:52.720Z,22.67
2023-04-22T12:04:28.548Z,22.70
2023-04-22T12:07:04.259Z,22.80
2023-04-22T12:09:41.586Z,22.84
2023-04-22T12:12:21.561Z,22.85
2023-04-22T12:14:56.701Z,23.25
2023-04-22T12:17:35.665Z,23.39
2023-04-22T12:20:15.695Z,23.59
2023-04-22T12:22:58.027Z,23.63
2023-04-22T12:25:31.700Z,23.86
2023-04-22T12:28:12.568Z,24.05
2023-04-22T12:30:51.924Z,24.34
2023-04-22T12:33:34.362Z,24.46
2023-04-22T12:36:09.223Z,23.88
2023-04-22T12:38:46.388Z,23.51
2023-04-22T12:41:28.356Z,23.39
2023-04-22T12:44:03.790Z,23.42
2023-04-22T12:46:39.390Z,23.32
2023-04-22T12:49:19.753Z,23.12
2023-04-22T12:52:01.286Z,22.92
2023-04-22T12:54:41.759Z,22.99
2023-04-22T12:57:13.273Z,23.09
2023-04-22T12:59:51.947Z,23.17
2023-04-22T13:02:25.053Z,23.39
2023-04-22T13:05:00.112Z,23.63
2023-04-22T13:07:42.623Z,23.82
2023-04-22T13:10:26.013Z,24.01
2023-04-22T13:15:40.460Z,24.58
2023-04-22T13:18:19.995Z,24.83
2023-04-22T13:20:57.766Z,25.09
2023-04-22T13:23:30.961Z,25.15
2023-04-22T13:26:07.541Z,25.33
2023-04-22T13:28:45.040Z,25.64
2023-04-22T13:31:27.163Z,25.88
2023-04-22T13:34:03.870Z,26.07
2023-04-22T13:36:43.567Z,26.27
2023-04-22T13:39:19.239Z,26.24
2023-04-22T13:42:00.728Z,26.22
2023-04-22T13:44:38.794Z,26.23
2023-04-22T13:47:15.808Z,26.29
2023-04-22T13:49:52.161Z,26.47
2023-04-22T13:52:29.065Z,26.69
2023-04-22T13:55:06.407Z,26.38
2023-04-22T13:57:48.320Z,26.32
2023-04-22T14:00:31.130Z,26.03
2023-04-22T14:03:05.452Z,26.26
2023-04-22T14:05:39.856Z,26.52
2023-04-22T14:08:15.201Z,26.62
2023-04-22T14:10:49.889Z,26.34
2023-04-22T14:13:32.934Z,26.36
2023-04-22T14:16:13.405Z,26.42
2023-04-22T14:18:47.285Z,26.30
2023-04-22T14:24:11.861Z,26.36
2023-04-22T14:26:43.728Z,26.16
2023-04-22T14:29:26.783Z,26.21
2023-04-22T14:32:03.141Z,26.30
2023-04-22T14:34:40.937Z,26.47
2023-04-22T14:37:17.584Z,26.30
2023-04-22T14:39:52.782Z,26.22
2023-04-22T14:42:32.381Z,26.08
2023-04-22T14:45:17.046Z,25.81
2023-04-22T14:47:51.230Z,25.62
2023-04-22T14:50:35.325Z,25.58
2023-04-22T14:53:13.652Z,25.46
2023-04-22T14:55:46.552Z,25.36
2023-04-22T14:58:28.658Z,25.21
2023-04-22T15:01:05.214Z,25.18
2023-04-22T15:03:43.723Z,25.19
2023-04-22T15:06:21.236Z,24.86
2023-04-22T15:09:04.776Z,24.80
2023-04-22T15:11:46.702Z,24.67
2023-04-22T15:14:23.699Z,24.65
2023-04-22T15:17:01.559Z,24.57
2023-04-22T15:19:38.798Z,24.44
2023-04-22T15:22:17.412Z,24.43
2023-04-22T15:24:55.833Z,24.31
2023-04-22T15:27:38.574Z,24.34
2023-04-22T15:30:17.574Z,24.44
2023-04-22T15:32:56.337Z,24.58
2023-04-22T15:35:51.667Z,24.61
2023-04-22T15:38:32.207Z,24.64
2023-04-22T15:41:05.034Z,24.55
2023-04-22T15:43:50.200Z,24.58
2023-04-22T15:46:33.453Z,24.59
2023-04-22T15:49:17.275Z,24.57
2023-04-22T15:51:51.705Z,24.47
2023-04-22T15:54:29.923Z,24.27
2023-04-22T15:57:12.000Z,24.15
2023-04-22T16:00:06.613Z,24.21
2023-04-22T16:02:56.723Z,24.34
2023-04-22T16:05:35.205Z,24.44
2023-04-22T16:08:14.786Z,24.53
2023-04-22T16:10:48.336Z,24.45
2023-04-22T16:13:21.573Z,24.49
2023-04-22T16:15:54.877Z,24.53
2023-04-22T16:18:30.803Z,24.53
2023-04-22T16:21:10.973Z,24.49
2023-04-22T16:23:47.761Z,24.46
2023-04-22T16:26:20.452Z,24.42
2023-04-22T16:29:06.174Z,24.51
2023-04-22T16:31:44.760Z,24.46
2023-04-22T16:34:20.228Z,24.36
2023-04-22T16:37:03.446Z,24.22
2023-04-22T16:39:37.068Z,24.23
2023-04-22T16:42:12.161Z,24.09
2023-04-22T16:45:15.319Z,24.11
2023-04-22T16:47:51.712Z,24.02
2023-04-22T16:50:30.591Z,23.81
2023-04-22T16:53:05.520Z,23.79
2023-04-22T16:55:43.251Z,23.61
2023-04-22T16:58:17.821Z,23.59
2023-04-22T17:00:50.120Z,23.48
2023-04-22T17:03:28.984Z,23.28
2023-04-22T17:06:03.074Z,23.16
2023-04-22T17:08:36.445Z,23.11
2023-04-22T17:11:20.824Z,23.06
2023-04-22T17:13:56.406Z,23.03
2023-04-22T17:16:30.370Z,22.97
2023-04-22T17:19:07.581Z,22.84
2023-04-22T17:21:44.849Z,22.73
2023-04-22T17:24:24.778Z,22.65
2023-04-22T17:27:01.513Z,22.38
2023-04-22T17:29:50.489Z,22.46
2023-04-22T17:32:23.992Z,22.11
2023-04-22T17:35:03.246Z,22.25
2023-04-22T17:37:40.094Z,22.11
2023-04-22T17:40:23.112Z,22.01
2023-04-22T17:43:01.131Z,21.90
2023-04-22T17:45:36.290Z,21.78
2023-04-22T17:48:08.705Z,21.70
2023-04-22T17:50:46.709Z,21.61
2023-04-22T17:53:28.380Z,21.53
2023-04-22T17:56:08.487Z,21.38
2023-04-22T17:58:51.319Z,21.34
2023-04-22T18:01:24.381Z,21.23
2023-04-22T18:04:05.349Z,21.14
2023-04-22T18:06:43.392Z,21.04
2023-04-22T18:09:22.145Z,20.97
2023-04-22T18:12:02.579Z,20.90
2023-04-22T18:14:35.523Z,20.79
2023-04-22T18:17:11.194Z,20.79
2023-04-22T18:19:46.482Z,20.70
2023-04-22T18:22:22.761Z,20.57
2023-04-22T18:25:05.952Z,20.52
2023-04-22T18:27:43.125Z,20.44
2023-04-22T18:30:18.475Z,20.34
2023-04-22T18:32:52.555Z,20.30
2023-04-22T18:35:28.850Z,20.19
2023-04-22T18:38:06.967Z,20.14
2023-04-22T18:40:47.070Z,20.09
2023-04-22T18:43:22.212Z,20.02
2023-04-22T18:45:56.847Z,19.99
2023-04-22T18:48:29.374Z,19.76
2023-04-22T18:51:09.968Z,19.81
2023-04-22T18:53:47.032Z,19.78
2023-04-22T18:56:25.041Z,19.76
2023-04-22T18:58:58.323Z,19.73
2023-04-22T19:01:30.900Z,19.58
2023-04-22T19:04:07.973Z,19.62
2023-04-22T19:06:44.493Z,19.56
2023-04-22T19:09:20.828Z,19.52
2023-04-22T19:11:56.522Z,19.47
2023-04-22T19:14:31.804Z,19.43
2023-04-22T19:17:04.376Z,19.39
2023-04-22T19:19:37.419Z,19.36
2023-04-22T19:22:09.988Z,19.32
2023-04-22T19:24:48.498Z,19.27
2023-04-22T19:27:20.046Z,19.22
2023-04-22T19:30:04.003Z,19.22
2023-04-22T19:32:36.938Z,19.12
2023-04-22T19:35:17.978Z,19.12
2023-04-22T19:37:51.811Z,19.10
2023-04-22T19:40:22.257Z,19.02
2023-04-22T19:43:00.110Z,18.94
2023-04-22T19:45:38.257Z,18.86
2023-04-22T19:48:13.816Z,18.54
2023-04-22T19:50:55.677Z,18.73
2023-04-22T19:53:37.245Z,18.70
2023-04-22T19:56:08.004Z,18.60
2023-04-22T19:58:45.775Z,18.55
2023-04-22T20:01:39.358Z,18.48
2023-04-22T20:04:15.589Z,18.48
2023-04-22T20:06:50.864Z,18.47
2023-04-22T20:09:26.793Z,18.47
2023-04-22T20:12:03.177Z,18.43
2023-04-22T20:14:39.199Z,18.45
2023-04-22T20:17:14.517Z,18.44
2023-04-22T20:19:52.339Z,18.47
2023-04-22T20:22:32.216Z,18.43
2023-04-22T20:25:07.873Z,18.22
2023-04-22T20:27:38.582Z,18.43
2023-04-22T20:30:15.394Z,18.42
2023-04-22T20:32:49.264Z,18.45
2023-04-22T20:35:25.237Z,18.42
2023-04-22T20:38:15.175Z,18.38
2023-04-22T20:40:49.406Z,18.33
2023-04-22T20:43:22.596Z,18.28
2023-04-22T20:45:58.507Z,18.28
2023-04-22T20:48:39.330Z,18.23
2023-04-22T20:51:26.907Z,18.24
2023-04-22T20:54:17.773Z,18.13
2023-04-22T20:56:58.501Z,18.14
2023-04-22T20:59:32.530Z,18.13
2023-04-22T21:02:08.981Z,18.08
2023-04-22T21:04:50.464Z,17.95
2023-04-22T21:07:32.207Z,17.79
2023-04-22T21:10:13.638Z,17.93
2023-04-22T21:12:50.978Z,17.83
2023-04-22T21:15:26.716Z,17.80
2023-04-22T21:18:13.920Z,17.74
2023-04-22T21:20:58.005Z,17.66
2023-04-22T21:23:35.945Z,17.46
2023-04-22T21:26:11.663Z,17.49
2023-04-22T21:28:46.506Z,17.50
2023-04-22T21:31:30.945Z,17.49
2023-04-22T21:34:07.372Z,17.49
2023-04-22T21:36:47.882Z,17.53
2023-04-22T21:39:26.307Z,17.53
2023-04-22T21:42:08.873Z,17.53
2023-04-22T21:44:45.062Z,17.50
2023-04-22T21:47:16.871Z,17.50
2023-04-22T21:49:52.209Z,17.52
2023-04-22T21:52:32.680Z,17.49
2023-04-22T21:55:07.697Z,17.16
2023-04-22T21:57:43.187Z,17.42
2023-04-22T22:00:18.685Z,17.35
2023-04-22T22:03:09.784Z,17.38
2023-04-22T22:05:49.094Z,17.33
2023-04-22T22:08:29.542Z,17.26
2023-04-22T22:11:20.254Z,17.22
2023-04-22T22:14:06.906Z,17.15
2023-04-22T22:16:41.147Z,17.11
2023-04-22T22:19:18.621Z,16.80
2023-04-22T22:22:01.161Z,17.03
2023-04-22T22:24:39.039Z,16.94
2023-04-22T22:27:25.868Z,16.90
2023-04-22T22:29:58.537Z,16.83
2023-04-22T22:32:29.249Z,16.81
2023-04-22T22:35:01.656Z,16.64
2023-04-22T22:37:38.566Z,16.73
2023-04-22T22:40:20.181Z,16.66
2023-04-22T22:42:56.216Z,16.57
2023-04-22T22:45:27.630Z,16.49
2023-04-22T22:48:07.162Z,16.41
2023-04-22T22:50:43.442Z,16.35
2023-04-22T22:53:14.788Z,16.31
2023-04-22T22:55:59.713Z,16.25
2023-04-22T22:58:38.554Z,16.09
2023-04-22T23:01:26.366Z,16.13
2023-04-22T23:03:59.911Z,16.14
2023-04-22T23:06:38.426Z,16.04
2023-04-22T23:09:14.683Z,16.04
2023-04-22T23:11:56.198Z,15.99
2023-04-22T23:14:33.643Z,15.94
2023-04-22T23:17:16.631Z,15.90
2023-04-22T23:20:03.795Z,15.66
2023-04-22T23:22:37.411Z,15.80
2023-04-22T23:25:11.873Z,15.58
2023-04-22T23:27:47.470Z,15.67
2023-04-22T23:30:22.298Z,15.59
2023-04-22T23:33:12.997Z,15.55
2023-04-22T23:35:47.009Z,15.52
2023-04-22T23:38:25.928Z,15.53
2023-04-22T23:41:08.597Z,15.54
2023-04-22T23:43:49.709Z,15.53
2023-04-22T23:46:24.960Z,15.50
2023-04-22T23:48:57.701Z,15.49
2023-04-22T23:51:35.877Z,15.48
2023-04-22T23:54:08.415Z,15.54
2023-04-22T23:56:46.693Z,15.57
2023-04-22T23:59:24.818Z,15.60
